sensor_id;sensor_type;location;lat;lon;timestamp;temperature;humidity
33149;DHT22;19506;51.040;3.856;2023-05-07T00:01:35;20.40;99.90
33149;DHT22;19506;51.040;3.856;2023-05-07T00:04:01;20.40;99.90
33149;DHT22;19506;51.040;3.856;2023-05-07T00:06:27;20.40;99.90
33149;DHT22;19506;51.040;3.856;2023-05-07T00:08:54;20.40;99.90
33149;DHT22;19506;51.040;3.856;2023-05-07T00:11:20;20.40;99.90
33149;DHT22;19506;51.040;3.856;2023-05-07T00:13:47;20.40;99.90
33149;DHT22;19506;51.040;3.856;2023-05-07T00:16:12;20.40;99.90
33149;DHT22;19506;51.040;3.856;2023-05-07T00:18:38;20.40;99.90
33149;DHT22;19506;51.040;3.856;2023-05-07T00:21:04;20.40;99.90
33149;DHT22;19506;51.040;3.856;2023-05-07T00:23:29;20.40;99.90
33149;DHT22;19506;51.040;3.856;2023-05-07T00:25:56;20.40;99.90
33149;DHT22;19506;51.040;3.856;2023-05-07T00:28:21;20.40;99.90
33149;DHT22;19506;51.040;3.856;2023-05-07T00:30:47;20.40;99.90
33149;DHT22;19506;51.040;3.856;2023-05-07T00:33:13;20.40;99.90
33149;DHT22;19506;51.040;3.856;2023-05-07T00:35:38;20.30;99.90
33149;DHT22;19506;51.040;3.856;2023-05-07T00:38:04;20.30;99.90
33149;DHT22;19506;51.040;3.856;2023-05-07T00:40:30;20.40;99.90
33149;DHT22;19506;51.040;3.856;2023-05-07T00:42:55;20.30;99.90
33149;DHT22;19506;51.040;3.856;2023-05-07T00:45:26;20.30;99.90
33149;DHT22;19506;51.040;3.856;2023-05-07T00:47:55;20.30;99.90
33149;DHT22;19506;51.040;3.856;2023-05-07T00:50:20;20.30;99.90
33149;DHT22;19506;51.040;3.856;2023-05-07T00:52:46;20.30;99.90
33149;DHT22;19506;51.040;3.856;2023-05-07T00:55:12;20.30;99.90
33149;DHT22;19506;51.040;3.856;2023-05-07T00:57:41;20.30;99.90
33149;DHT22;19506;51.040;3.856;2023-05-07T01:00:08;20.30;99.90
33149;DHT22;19506;51.040;3.856;2023-05-07T01:02:35;20.30;99.90
33149;DHT22;19506;51.040;3.856;2023-05-07T01:05:02;20.30;99.90
33149;DHT22;19506;51.040;3.856;2023-05-07T01:07:29;20.30;99.90
33149;DHT22;19506;51.040;3.856;2023-05-07T01:09:55;20.30;99.90
33149;DHT22;19506;51.040;3.856;2023-05-07T01:12:22;20.30;99.90
33149;DHT22;19506;51.040;3.856;2023-05-07T01:14:48;20.30;99.90
33149;DHT22;19506;51.040;3.856;2023-05-07T01:17:15;20.30;99.90
33149;DHT22;19506;51.040;3.856;2023-05-07T01:19:41;20.30;99.90
33149;DHT22;19506;51.040;3.856;2023-05-07T01:22:09;20.30;99.90
33149;DHT22;19506;51.040;3.856;2023-05-07T01:24:37;20.20;99.90
33149;DHT22;19506;51.040;3.856;2023-05-07T01:27:03;20.30;99.90
33149;DHT22;19506;51.040;3.856;2023-05-07T01:29:29;20.20;99.90
33149;DHT22;19506;51.040;3.856;2023-05-07T01:31:58;20.30;99.90
33149;DHT22;19506;51.040;3.856;2023-05-07T01:34:25;20.20;99.90
33149;DHT22;19506;51.040;3.856;2023-05-07T01:36:54;20.20;99.90
33149;DHT22;19506;51.040;3.856;2023-05-07T01:39:23;20.30;99.90
33149;DHT22;19506;51.040;3.856;2023-05-07T01:41:49;20.20;99.90
33149;DHT22;19506;51.040;3.856;2023-05-07T01:44:16;20.20;99.90
33149;DHT22;19506;51.040;3.856;2023-05-07T01:46:43;20.20;99.90
33149;DHT22;19506;51.040;3.856;2023-05-07T01:49:10;20.20;99.90
33149;DHT22;19506;51.040;3.856;2023-05-07T01:51:35;20.20;99.90
33149;DHT22;19506;51.040;3.856;2023-05-07T01:54:01;20.20;99.90
33149;DHT22;19506;51.040;3.856;2023-05-07T01:56:27;20.20;99.90
33149;DHT22;19506;51.040;3.856;2023-05-07T01:58:52;20.20;99.90
33149;DHT22;19506;51.040;3.856;2023-05-07T02:01:18;20.20;99.90
33149;DHT22;19506;51.040;3.856;2023-05-07T02:03:44;20.20;99.90
33149;DHT22;19506;51.040;3.856;2023-05-07T02:06:10;20.20;99.90
33149;DHT22;19506;51.040;3.856;2023-05-07T02:08:35;20.20;99.90
33149;DHT22;19506;51.040;3.856;2023-05-07T02:11:01;20.20;99.90
33149;DHT22;19506;51.040;3.856;2023-05-07T02:13:33;20.20;99.90
33149;DHT22;19506;51.040;3.856;2023-05-07T02:16:00;20.20;99.90
33149;DHT22;19506;51.040;3.856;2023-05-07T02:18:25;20.20;99.90
33149;DHT22;19506;51.040;3.856;2023-05-07T02:20:51;20.20;99.90
33149;DHT22;19506;51.040;3.856;2023-05-07T02:23:17;20.20;99.90
33149;DHT22;19506;51.040;3.856;2023-05-07T02:25:42;20.20;99.90
33149;DHT22;19506;51.040;3.856;2023-05-07T02:28:08;20.20;99.90
33149;DHT22;19506;51.040;3.856;2023-05-07T02:30:34;20.10;99.90
33149;DHT22;19506;51.040;3.856;2023-05-07T02:32:59;20.20;99.90
33149;DHT22;19506;51.040;3.856;2023-05-07T02:35:25;20.20;99.90
33149;DHT22;19506;51.040;3.856;2023-05-07T02:37:51;20.20;99.90
33149;DHT22;19506;51.040;3.856;2023-05-07T02:40:17;20.10;99.90
33149;DHT22;19506;51.040;3.856;2023-05-07T02:42:42;20.20;99.90
33149;DHT22;19506;51.040;3.856;2023-05-07T02:45:08;20.10;99.90
33149;DHT22;19506;51.040;3.856;2023-05-07T02:47:34;20.10;99.90
33149;DHT22;19506;51.040;3.856;2023-05-07T02:50:00;20.10;99.90
33149;DHT22;19506;51.040;3.856;2023-05-07T02:52:26;20.20;99.90
33149;DHT22;19506;51.040;3.856;2023-05-07T02:54:51;20.10;99.90
33149;DHT22;19506;51.040;3.856;2023-05-07T02:57:17;20.10;99.90
33149;DHT22;19506;51.040;3.856;2023-05-07T02:59:43;20.10;99.90
33149;DHT22;19506;51.040;3.856;2023-05-07T03:02:08;20.10;99.90
33149;DHT22;19506;51.040;3.856;2023-05-07T03:04:36;20.10;99.90
33149;DHT22;19506;51.040;3.856;2023-05-07T03:07:01;20.10;99.90
33149;DHT22;19506;51.040;3.856;2023-05-07T03:09:27;20.10;99.90
33149;DHT22;19506;51.040;3.856;2023-05-07T03:11:53;20.10;99.90
33149;DHT22;19506;51.040;3.856;2023-05-07T03:14:18;20.10;99.90
33149;DHT22;19506;51.040;3.856;2023-05-07T03:16:44;20.10;99.90
33149;DHT22;19506;51.040;3.856;2023-05-07T03:19:10;20.10;99.90
33149;DHT22;19506;51.040;3.856;2023-05-07T03:21:35;20.10;99.90
33149;DHT22;19506;51.040;3.856;2023-05-07T03:24:01;20.10;99.90
33149;DHT22;19506;51.040;3.856;2023-05-07T03:26:26;20.10;99.90
33149;DHT22;19506;51.040;3.856;2023-05-07T03:28:52;20.10;99.90
33149;DHT22;19506;51.040;3.856;2023-05-07T03:31:18;20.10;99.90
33149;DHT22;19506;51.040;3.856;2023-05-07T03:33:51;20.10;99.90
33149;DHT22;19506;51.040;3.856;2023-05-07T03:36:17;20.00;99.90
33149;DHT22;19506;51.040;3.856;2023-05-07T03:38:43;20.00;99.90
33149;DHT22;19506;51.040;3.856;2023-05-07T03:41:08;20.10;99.90
33149;DHT22;19506;51.040;3.856;2023-05-07T03:43:34;20.10;99.90
33149;DHT22;19506;51.040;3.856;2023-05-07T03:46:00;20.10;99.90
33149;DHT22;19506;51.040;3.856;2023-05-07T03:48:25;20.10;99.90
33149;DHT22;19506;51.040;3.856;2023-05-07T03:50:51;20.00;99.90
33149;DHT22;19506;51.040;3.856;2023-05-07T03:53:17;20.10;99.90
33149;DHT22;19506;51.040;3.856;2023-05-07T03:55:43;20.10;99.90
33149;DHT22;19506;51.040;3.856;2023-05-07T03:58:08;20.10;99.90
33149;DHT22;19506;51.040;3.856;2023-05-07T04:00:34;20.00;99.90
33149;DHT22;19506;51.040;3.856;2023-05-07T04:03:04;20.00;99.90
33149;DHT22;19506;51.040;3.856;2023-05-07T04:05:30;20.00;99.90
33149;DHT22;19506;51.040;3.856;2023-05-07T04:07:58;20.00;99.90
33149;DHT22;19506;51.040;3.856;2023-05-07T04:10:23;20.00;99.90
33149;DHT22;19506;51.040;3.856;2023-05-07T04:12:49;20.00;99.90
33149;DHT22;19506;51.040;3.856;2023-05-07T04:15:15;20.00;99.90
33149;DHT22;19506;51.040;3.856;2023-05-07T04:17:40;20.00;99.90
33149;DHT22;19506;51.040;3.856;2023-05-07T04:20:09;20.00;99.90
33149;DHT22;19506;51.040;3.856;2023-05-07T04:22:36;20.00;99.90
33149;DHT22;19506;51.040;3.856;2023-05-07T04:25:02;20.00;99.90
33149;DHT22;19506;51.040;3.856;2023-05-07T04:27:28;20.00;99.90
33149;DHT22;19506;51.040;3.856;2023-05-07T04:29:54;20.00;99.90
33149;DHT22;19506;51.040;3.856;2023-05-07T04:32:21;20.00;99.90
33149;DHT22;19506;51.040;3.856;2023-05-07T04:34:47;20.00;99.90
33149;DHT22;19506;51.040;3.856;2023-05-07T04:37:13;20.00;99.90
33149;DHT22;19506;51.040;3.856;2023-05-07T04:39:39;20.00;99.90
33149;DHT22;19506;51.040;3.856;2023-05-07T04:42:04;20.00;99.90
33149;DHT22;19506;51.040;3.856;2023-05-07T04:44:34;20.00;99.90
33149;DHT22;19506;51.040;3.856;2023-05-07T04:47:00;20.00;99.90
33149;DHT22;19506;51.040;3.856;2023-05-07T04:59:10;19.90;99.90
33149;DHT22;19506;51.040;3.856;2023-05-07T05:06:28;19.90;99.90
33149;DHT22;19506;51.040;3.856;2023-05-07T05:13:47;20.20;99.90
33149;DHT22;19506;51.040;3.856;2023-05-07T05:18:41;20.20;99.90
33149;DHT22;19506;51.040;3.856;2023-05-07T05:40:37;20.50;99.90
33149;DHT22;19506;51.040;3.856;2023-05-07T05:43:02;20.50;99.90
33149;DHT22;19506;51.040;3.856;2023-05-07T05:45:28;20.60;99.90
33149;DHT22;19506;51.040;3.856;2023-05-07T05:50:22;20.70;99.90
33149;DHT22;19506;51.040;3.856;2023-05-07T05:57:40;20.70;99.90
33149;DHT22;19506;51.040;3.856;2023-05-07T06:07:25;20.80;99.90
33149;DHT22;19506;51.040;3.856;2023-05-07T06:09:51;20.80;99.90
33149;DHT22;19506;51.040;3.856;2023-05-07T06:12:16;20.80;99.90
33149;DHT22;19506;51.040;3.856;2023-05-07T06:17:11;20.80;99.90
33149;DHT22;19506;51.040;3.856;2023-05-07T06:22:03;20.90;99.90
33149;DHT22;19506;51.040;3.856;2023-05-07T06:34:18;20.90;99.90
33149;DHT22;19506;51.040;3.856;2023-05-07T06:48:55;21.00;99.90
33149;DHT22;19506;51.040;3.856;2023-05-07T07:03:32;21.10;99.90
33149;DHT22;19506;51.040;3.856;2023-05-07T07:08:24;21.00;99.90
33149;DHT22;19506;51.040;3.856;2023-05-07T07:15:43;21.10;99.90
33149;DHT22;19506;51.040;3.856;2023-05-07T07:18:08;21.20;99.90
33149;DHT22;19506;51.040;3.856;2023-05-07T07:20:34;21.20;99.90
33149;DHT22;19506;51.040;3.856;2023-05-07T07:23:00;21.30;99.90
33149;DHT22;19506;51.040;3.856;2023-05-07T07:25:25;21.40;99.90
33149;DHT22;19506;51.040;3.856;2023-05-07T07:27:51;21.30;99.90
33149;DHT22;19506;51.040;3.856;2023-05-07T07:30:17;21.40;99.90
33149;DHT22;19506;51.040;3.856;2023-05-07T07:32:42;21.20;99.90
33149;DHT22;19506;51.040;3.856;2023-05-07T08:14:07;21.20;99.90
33149;DHT22;19506;51.040;3.856;2023-05-07T08:16:35;21.30;99.90
33149;DHT22;19506;51.040;3.856;2023-05-07T08:19:01;21.30;99.90
33149;DHT22;19506;51.040;3.856;2023-05-07T08:23:52;21.30;99.90
33149;DHT22;19506;51.040;3.856;2023-05-07T08:31:10;21.20;99.90
33149;DHT22;19506;51.040;3.856;2023-05-07T08:33:36;21.20;99.90
33149;DHT22;19506;51.040;3.856;2023-05-07T08:36:02;21.30;99.90
33149;DHT22;19506;51.040;3.856;2023-05-07T08:43:21;21.20;99.90
33149;DHT22;19506;51.040;3.856;2023-05-07T08:45:49;21.30;99.90
33149;DHT22;19506;51.040;3.856;2023-05-07T08:48:22;21.30;99.90
33149;DHT22;19506;51.040;3.856;2023-05-07T08:50:49;21.50;99.90
33149;DHT22;19506;51.040;3.856;2023-05-07T08:58:08;21.30;99.90
33149;DHT22;19506;51.040;3.856;2023-05-07T09:03:02;21.20;99.90
33149;DHT22;19506;51.040;3.856;2023-05-07T09:10:21;21.40;99.90
33149;DHT22;19506;51.040;3.856;2023-05-07T09:12:47;21.40;99.90
33149;DHT22;19506;51.040;3.856;2023-05-07T09:15:13;21.30;99.90
33149;DHT22;19506;51.040;3.856;2023-05-07T09:17:39;21.30;99.90
33149;DHT22;19506;51.040;3.856;2023-05-07T09:29:54;21.40;99.90
33149;DHT22;19506;51.040;3.856;2023-05-07T09:39:41;21.60;99.90
33149;DHT22;19506;51.040;3.856;2023-05-07T09:44:34;21.50;99.90
33149;DHT22;19506;51.040;3.856;2023-05-07T09:47:00;21.50;99.90
33149;DHT22;19506;51.040;3.856;2023-05-07T09:49:29;21.30;99.90
33149;DHT22;19506;51.040;3.856;2023-05-07T10:21:22;20.80;99.90
33149;DHT22;19506;51.040;3.856;2023-05-07T10:36:22;21.40;99.90
33149;DHT22;19506;51.040;3.856;2023-05-07T10:38:48;21.40;99.90
33149;DHT22;19506;51.040;3.856;2023-05-07T10:43:43;21.60;99.90
33149;DHT22;19506;51.040;3.856;2023-05-07T10:46:10;21.50;99.90
33149;DHT22;19506;51.040;3.856;2023-05-07T10:51:37;21.30;99.90
33149;DHT22;19506;51.040;3.856;2023-05-07T10:56:38;20.90;99.90
33149;DHT22;19506;51.040;3.856;2023-05-07T10:59:34;20.90;99.90
33149;DHT22;19506;51.040;3.856;2023-05-07T11:02:02;20.90;99.90
33149;DHT22;19506;51.040;3.856;2023-05-07T11:04:30;20.90;99.90
33149;DHT22;19506;51.040;3.856;2023-05-07T11:15:13;21.20;99.90
33149;DHT22;19506;51.040;3.856;2023-05-07T11:26:07;20.80;99.90
33149;DHT22;19506;51.040;3.856;2023-05-07T11:28:43;20.60;99.90
33149;DHT22;19506;51.040;3.856;2023-05-07T11:31:10;20.60;99.90
33149;DHT22;19506;51.040;3.856;2023-05-07T11:33:37;20.50;99.90
33149;DHT22;19506;51.040;3.856;2023-05-07T11:36:03;20.50;99.90
33149;DHT22;19506;51.040;3.856;2023-05-07T11:38:30;20.50;99.90
33149;DHT22;19506;51.040;3.856;2023-05-07T11:40:58;20.40;99.90
33149;DHT22;19506;51.040;3.856;2023-05-07T11:43:26;20.40;99.90
33149;DHT22;19506;51.040;3.856;2023-05-07T11:45:52;20.50;99.90
33149;DHT22;19506;51.040;3.856;2023-05-07T11:48:18;20.40;99.90
33149;DHT22;19506;51.040;3.856;2023-05-07T11:50:59;20.40;99.90
33149;DHT22;19506;51.040;3.856;2023-05-07T11:53:26;20.40;99.90
33149;DHT22;19506;51.040;3.856;2023-05-07T11:55:53;20.40;99.90
33149;DHT22;19506;51.040;3.856;2023-05-07T11:58:23;20.40;99.90
33149;DHT22;19506;51.040;3.856;2023-05-07T12:00:50;20.40;99.90
33149;DHT22;19506;51.040;3.856;2023-05-07T12:03:16;20.40;99.90
33149;DHT22;19506;51.040;3.856;2023-05-07T12:05:43;20.40;99.90
33149;DHT22;19506;51.040;3.856;2023-05-07T12:08:16;20.30;99.90
33149;DHT22;19506;51.040;3.856;2023-05-07T12:10:43;20.30;99.90
33149;DHT22;19506;51.040;3.856;2023-05-07T12:15:42;20.20;99.90
33149;DHT22;19506;51.040;3.856;2023-05-07T12:18:08;20.20;99.90
33149;DHT22;19506;51.040;3.856;2023-05-07T12:20:35;20.20;99.90
33149;DHT22;19506;51.040;3.856;2023-05-07T12:23:02;20.20;99.90
33149;DHT22;19506;51.040;3.856;2023-05-07T12:28:07;20.30;99.90
